createdAt,value
2018-06-25T00:00:26.176Z,480.70
2018-06-25T00:02:53.409Z,481.57
2018-06-25T00:05:20.678Z,481.23
2018-06-25T00:07:48.136Z,480.47
2018-06-25T00:10:15.381Z,482.97
2018-06-25T00:12:42.603Z,487.37
2018-06-25T00:15:09.824Z,481.20
2018-06-25T00:17:37.044Z,479.10
2018-06-25T00:20:04.313Z,485.00
2018-06-25T00:22:31.522Z,480.13
2018-06-25T00:24:58.748Z,478.47
2018-06-25T00:27:25.973Z,478.83
2018-06-25T00:29:53.202Z,478.47
2018-06-25T00:32:20.441Z,478.63
2018-06-25T00:34:47.653Z,477.07
2018-06-25T00:37:14.875Z,479.77
2018-06-25T00:39:42.097Z,476.77
2018-06-25T00:42:09.320Z,478.50
2018-06-25T00:44:36.541Z,478.20
2018-06-25T00:47:03.837Z,476.87
2018-06-25T00:49:31.052Z,475.63
2018-06-25T00:51:58.288Z,474.97
2018-06-25T00:54:25.909Z,479.47
2018-06-25T00:56:53.133Z,476.27
2018-06-25T00:59:31.896Z,476.90
2018-06-25T01:01:59.112Z,475.77
2018-06-25T01:04:26.330Z,479.30
2018-06-25T01:06:53.565Z,474.77
2018-06-25T01:09:20.773Z,481.20
2018-06-25T01:11:48.037Z,476.97
2018-06-25T01:14:15.253Z,478.77
2018-06-25T01:16:42.585Z,472.17
2018-06-25T01:19:09.811Z,471.97
2018-06-25T01:21:37.044Z,473.03
2018-06-25T01:24:04.328Z,472.47
2018-06-25T01:26:31.572Z,475.97
2018-06-25T01:28:58.787Z,475.50
2018-06-25T01:31:26.005Z,472.97
2018-06-25T01:33:53.416Z,472.47
2018-06-25T01:36:20.652Z,477.57
2018-06-25T01:38:47.864Z,472.17
2018-06-25T01:41:15.094Z,475.00
2018-06-25T01:43:42.340Z,472.30
2018-06-25T01:46:09.596Z,474.97
2018-06-25T01:48:36.837Z,471.10
2018-06-25T01:51:04.108Z,471.60
2018-06-25T01:53:31.453Z,470.43
2018-06-25T01:55:58.668Z,472.13
2018-06-25T01:58:25.889Z,469.63
2018-06-25T02:00:53.102Z,469.60
2018-06-25T02:03:20.310Z,476.73
2018-06-25T02:05:47.513Z,471.33
2018-06-25T02:08:14.758Z,470.13
2018-06-25T02:10:41.974Z,469.47
2018-06-25T02:13:09.246Z,471.70
2018-06-25T02:15:36.453Z,471.80
2018-06-25T02:18:03.917Z,468.87
2018-06-25T02:20:31.125Z,470.50
2018-06-25T02:22:58.353Z,469.20
2018-06-25T02:25:25.553Z,468.87
2018-06-25T02:27:52.777Z,468.00
2018-06-25T02:30:20.009Z,469.27
2018-06-25T02:32:47.233Z,469.40
2018-06-25T02:35:14.438Z,466.63
2018-06-25T02:37:41.686Z,468.23
2018-06-25T02:40:08.942Z,472.90
2018-06-25T02:42:36.182Z,468.40
2018-06-25T02:45:03.476Z,468.57
2018-06-25T02:47:30.685Z,468.80
2018-06-25T02:49:57.925Z,472.47
2018-06-25T02:52:25.132Z,469.23
2018-06-25T02:54:52.350Z,470.63
2018-06-25T02:57:19.562Z,466.67
2018-06-25T02:59:46.769Z,468.57
2018-06-25T03:02:13.977Z,467.57
2018-06-25T03:04:41.193Z,472.80
2018-06-25T03:07:08.421Z,468.67
2018-06-25T03:09:35.629Z,466.23
2018-06-25T03:12:02.877Z,464.07
2018-06-25T03:14:30.101Z,464.83
2018-06-25T03:16:57.309Z,464.37
2018-06-25T03:19:24.545Z,463.97
2018-06-25T03:21:51.749Z,459.70
2018-06-25T03:24:18.987Z,464.27
2018-06-25T03:26:46.230Z,459.47
2018-06-25T03:29:13.464Z,462.60
2018-06-25T03:31:40.684Z,459.73
2018-06-25T03:34:07.913Z,456.90
2018-06-25T03:36:35.177Z,459.77
2018-06-25T03:39:02.901Z,458.67
2018-06-25T03:41:30.209Z,459.77
2018-06-25T03:43:57.418Z,456.60
2018-06-25T03:46:24.625Z,457.77
2018-06-25T03:48:51.853Z,457.50
2018-06-25T03:51:19.069Z,458.17
2018-06-25T03:53:46.305Z,459.23
2018-06-25T03:56:13.516Z,462.07
2018-06-25T03:58:40.729Z,460.90
2018-06-25T04:01:08.037Z,458.10
2018-06-25T04:03:35.189Z,462.33
2018-06-25T04:06:02.405Z,460.60
2018-06-25T04:08:29.657Z,458.03
2018-06-25T04:10:56.888Z,457.67
2018-06-25T04:13:24.106Z,467.60
2018-06-25T04:15:51.345Z,465.00
2018-06-25T04:18:18.578Z,462.37
2018-06-25T04:20:45.898Z,464.20
2018-06-25T04:23:13.035Z,469.37
2018-06-25T04:25:40.345Z,465.47
2018-06-25T04:28:07.578Z,468.63
2018-06-25T04:30:34.855Z,473.90
2018-06-25T04:33:02.070Z,468.00
2018-06-25T04:35:29.305Z,472.10
2018-06-25T04:37:56.540Z,471.87
2018-06-25T04:40:23.815Z,470.37
2018-06-25T04:42:50.981Z,473.17
2018-06-25T04:45:18.206Z,472.30
2018-06-25T04:47:45.433Z,471.83
2018-06-25T04:50:12.649Z,468.57
2018-06-25T04:52:39.885Z,472.37
2018-06-25T04:55:07.125Z,470.23
2018-06-25T04:57:34.341Z,472.60
2018-06-25T05:00:01.639Z,474.27
2018-06-25T05:02:28.861Z,481.00
2018-06-25T05:04:56.123Z,482.10
2018-06-25T05:07:23.332Z,484.30
2018-06-25T05:09:50.541Z,481.27
2018-06-25T05:12:17.785Z,485.03
2018-06-25T05:14:45.086Z,482.77
2018-06-25T05:17:12.313Z,482.47
2018-06-25T05:19:39.549Z,483.17
2018-06-25T05:22:06.765Z,488.00
2018-06-25T05:24:34.032Z,482.97
2018-06-25T05:27:01.318Z,484.77
2018-06-25T05:29:28.570Z,495.13
2018-06-25T05:31:55.967Z,481.00
2018-06-25T05:34:23.192Z,485.67
2018-06-25T05:36:50.442Z,480.57
2018-06-25T05:39:17.646Z,483.47
2018-06-25T05:41:44.885Z,479.97
2018-06-25T05:44:12.699Z,482.00
2018-06-25T05:46:39.933Z,482.20
2018-06-25T05:49:07.439Z,517.73
2018-06-25T05:51:34.658Z,490.40
2018-06-25T05:54:01.885Z,487.50
2018-06-25T05:56:29.093Z,486.57
2018-06-25T05:58:57.183Z,491.37
2018-06-25T06:01:24.341Z,491.27
2018-06-25T06:03:51.605Z,491.20
2018-06-25T06:06:18.811Z,489.03
2018-06-25T06:08:46.041Z,490.60
2018-06-25T06:11:13.267Z,492.90
2018-06-25T06:13:40.497Z,495.93
2018-06-25T06:16:07.703Z,491.83
2018-06-25T06:18:34.930Z,497.50
2018-06-25T06:21:02.206Z,493.83
2018-06-25T06:23:29.553Z,499.00
2018-06-25T06:25:56.780Z,499.87
2018-06-25T06:28:23.992Z,499.77
2018-06-25T06:30:51.205Z,497.80
2018-06-25T06:33:18.405Z,496.33
2018-06-25T06:35:45.626Z,497.77
2018-06-25T06:38:12.837Z,499.70
2018-06-25T06:40:40.042Z,498.17
2018-06-25T06:43:07.254Z,502.03
2018-06-25T06:45:34.486Z,503.43
2018-06-25T06:48:01.705Z,504.90
2018-06-25T06:50:28.914Z,507.83
2018-06-25T06:52:56.160Z,509.57
2018-06-25T06:55:23.397Z,513.40
2018-06-25T06:57:50.635Z,513.53
2018-06-25T07:00:17.854Z,509.60
2018-06-25T07:02:45.129Z,509.20
2018-06-25T07:05:12.345Z,510.80
2018-06-25T07:07:39.555Z,516.90
2018-06-25T07:10:06.813Z,515.87
2018-06-25T07:12:34.049Z,512.40
2018-06-25T07:15:01.262Z,511.67
2018-06-25T07:17:28.493Z,511.40
2018-06-25T07:19:55.718Z,517.73
2018-06-25T07:22:22.925Z,516.27
2018-06-25T07:24:50.153Z,510.37
2018-06-25T07:27:17.367Z,516.33
2018-06-25T07:29:44.577Z,510.70
2018-06-25T07:32:11.781Z,512.70
2018-06-25T07:34:38.993Z,513.73
2018-06-25T07:37:06.209Z,513.87
2018-06-25T07:39:33.442Z,513.77
2018-06-25T07:42:00.638Z,509.13
2018-06-25T07:44:27.849Z,513.73
2018-06-25T07:46:55.049Z,513.47
2018-06-25T07:49:22.270Z,509.67
2018-06-25T07:51:49.593Z,514.70
2018-06-25T07:54:16.818Z,508.60
2018-06-25T07:56:44.031Z,507.77
2018-06-25T07:59:11.255Z,511.57
2018-06-25T08:01:38.461Z,513.57
2018-06-25T08:04:05.661Z,519.50
2018-06-25T08:06:32.885Z,534.40
2018-06-25T08:09:00.127Z,543.80
2018-06-25T08:11:27.576Z,561.90
2018-06-25T08:13:54.820Z,560.23
2018-06-25T08:16:22.156Z,563.17
2018-06-25T08:18:49.309Z,562.53
2018-06-25T08:21:16.897Z,560.77
2018-06-25T08:23:44.105Z,555.20
2018-06-25T08:26:11.526Z,561.27
2018-06-25T08:28:38.720Z,554.13
2018-06-25T08:31:06.253Z,542.83
2018-06-25T08:33:33.480Z,546.90
2018-06-25T08:36:00.700Z,542.67
2018-06-25T08:38:27.924Z,548.50
2018-06-25T08:40:55.193Z,541.70
2018-06-25T08:43:22.396Z,550.63
2018-06-25T08:45:49.633Z,544.93
2018-06-25T08:48:16.823Z,536.97
2018-06-25T08:50:44.033Z,538.80
2018-06-25T08:53:11.233Z,543.50
2018-06-25T08:55:38.448Z,538.53
2018-06-25T08:58:05.661Z,542.37
2018-06-25T09:00:32.871Z,545.00
2018-06-25T09:03:00.074Z,546.93
2018-06-25T09:05:27.281Z,542.97
2018-06-25T09:07:54.489Z,545.90
2018-06-25T09:10:21.716Z,548.33
2018-06-25T09:12:48.941Z,547.63
2018-06-25T09:15:16.231Z,546.00
2018-06-25T09:17:43.405Z,555.23
2018-06-25T09:20:10.631Z,556.87
2018-06-25T09:22:37.934Z,559.00
2018-06-25T09:25:05.208Z,561.20
2018-06-25T09:27:38.146Z,567.50
2018-06-25T09:30:05.573Z,566.17
2018-06-25T09:32:32.780Z,566.53
2018-06-25T09:34:59.985Z,569.03
2018-06-25T09:37:27.224Z,567.57
2018-06-25T09:39:54.481Z,571.27
2018-06-25T09:42:21.702Z,577.53
2018-06-25T09:44:48.917Z,571.93
2018-06-25T09:47:16.143Z,574.17
2018-06-25T09:49:43.365Z,564.20
2018-06-25T09:52:10.576Z,567.07
2018-06-25T09:54:37.856Z,564.47
2018-06-25T09:57:05.107Z,561.80
2018-06-25T09:59:32.341Z,560.77
2018-06-25T10:01:59.545Z,561.53
2018-06-25T10:04:26.749Z,566.37
2018-06-25T10:06:53.961Z,576.83
2018-06-25T10:09:21.163Z,574.03
2018-06-25T10:11:48.384Z,573.63
2018-06-25T10:14:15.605Z,575.13
2018-06-25T10:16:42.849Z,578.30
2018-06-25T10:19:10.062Z,583.93
2018-06-25T10:21:37.306Z,604.30
2018-06-25T10:24:04.549Z,594.57
2018-06-25T10:26:31.781Z,577.63
2018-06-25T10:28:58.994Z,583.03
2018-06-25T10:31:26.201Z,575.77
2018-06-25T10:33:53.521Z,574.43
2018-06-25T10:36:20.721Z,572.90
2018-06-25T10:38:47.962Z,570.70
2018-06-25T10:41:15.174Z,566.87
2018-06-25T10:43:42.401Z,567.67
2018-06-25T10:46:09.642Z,569.63
2018-06-25T10:48:36.869Z,566.13
2018-06-25T10:51:04.073Z,569.40
2018-06-25T10:53:31.314Z,607.17
2018-06-25T10:55:58.585Z,599.40
2018-06-25T10:58:25.817Z,665.27
2018-06-25T11:00:53.025Z,731.63
2018-06-25T11:03:20.525Z,759.07
2018-06-25T11:05:47.757Z,754.57
2018-06-25T11:08:15.021Z,764.33
2018-06-25T11:10:42.237Z,736.57
2018-06-25T11:13:09.453Z,696.20
2018-06-25T11:15:36.837Z,682.93
2018-06-25T11:18:04.401Z,626.10
2018-06-25T11:20:31.607Z,654.13
2018-06-25T11:22:58.813Z,678.03
2018-06-25T11:25:26.025Z,681.37
2018-06-25T11:27:53.222Z,764.83
2018-06-25T11:30:20.433Z,757.87
2018-06-25T11:32:47.633Z,745.00
2018-06-25T11:35:14.849Z,689.87
2018-06-25T11:37:42.066Z,657.93
2018-06-25T11:40:09.278Z,656.80
2018-06-25T11:42:36.489Z,596.90
2018-06-25T11:45:03.746Z,592.47
2018-06-25T11:47:30.931Z,577.03
2018-06-25T11:49:58.480Z,573.90
2018-06-25T11:52:25.658Z,601.60
2018-06-25T11:54:52.888Z,671.60
2018-06-25T11:57:20.097Z,681.73
2018-06-25T11:59:47.330Z,753.67
2018-06-25T12:02:14.557Z,755.40
2018-06-25T12:04:41.779Z,776.83
2018-06-25T12:07:09.009Z,736.80
2018-06-25T12:09:36.217Z,747.90
2018-06-25T12:12:03.470Z,761.63
2018-06-25T12:14:30.685Z,760.87
2018-06-25T12:16:57.987Z,757.27
2018-06-25T12:19:25.192Z,721.33
2018-06-25T12:21:52.400Z,757.90
2018-06-25T12:24:19.627Z,732.30
2018-06-25T12:26:46.837Z,734.77
2018-06-25T12:29:14.060Z,744.83
2018-06-25T12:31:41.278Z,757.20
2018-06-25T12:34:08.497Z,769.73
2018-06-25T12:36:35.705Z,763.43
2018-06-25T12:39:05.205Z,810.43
2018-06-25T12:41:32.469Z,781.23
2018-06-25T12:43:59.657Z,804.20
2018-06-25T12:46:26.857Z,802.77
2018-06-25T12:48:54.093Z,801.17
2018-06-25T12:51:21.301Z,785.93
2018-06-25T12:53:48.572Z,823.03
2018-06-25T12:56:15.769Z,870.77
2018-06-25T12:58:42.982Z,850.33
2018-06-25T13:01:10.194Z,869.10
2018-06-25T13:03:37.414Z,851.67
2018-06-25T13:06:04.716Z,835.37
2018-06-25T13:08:31.921Z,821.63
2018-06-25T13:10:59.121Z,810.37
2018-06-25T13:13:26.321Z,786.63
2018-06-25T13:15:53.535Z,709.23
2018-06-25T13:18:20.802Z,695.57
2018-06-25T13:20:48.038Z,649.40
2018-06-25T13:23:15.297Z,612.60
2018-06-25T13:25:42.588Z,580.20
2018-06-25T13:28:09.852Z,579.73
2018-06-25T13:30:37.681Z,638.57
2018-06-25T13:33:04.905Z,687.47
2018-06-25T13:35:32.113Z,671.17
2018-06-25T13:37:59.319Z,672.23
2018-06-25T13:40:26.537Z,667.40
2018-06-25T13:42:53.741Z,661.47
2018-06-25T13:45:21.010Z,599.60
2018-06-25T13:47:48.241Z,580.10
2018-06-25T13:50:15.478Z,572.63
2018-06-25T13:52:42.697Z,582.40
2018-06-25T13:55:09.985Z,578.43
2018-06-25T13:57:37.162Z,581.23
2018-06-25T14:00:05.586Z,614.13
2018-06-25T14:02:32.707Z,589.80
2018-06-25T14:04:59.900Z,603.47
2018-06-25T14:07:27.109Z,625.57
2018-06-25T14:09:54.421Z,661.70
2018-06-25T14:12:21.592Z,666.97
2018-06-25T14:14:48.848Z,691.83
2018-06-25T14:17:16.086Z,699.63
2018-06-25T14:19:43.321Z,747.67
2018-06-25T14:22:10.561Z,720.90
2018-06-25T14:24:43.573Z,721.87
2018-06-25T14:27:11.819Z,702.60
2018-06-25T14:29:39.061Z,696.90
2018-06-25T14:32:41.232Z,695.63
2018-06-25T14:35:14.986Z,708.53
2018-06-25T14:37:42.546Z,726.50
2018-06-25T14:40:09.788Z,678.47
2018-06-25T14:42:37.001Z,676.37
2018-06-25T14:45:04.295Z,667.93
2018-06-25T14:47:31.475Z,637.63
2018-06-25T14:49:58.693Z,702.67
2018-06-25T14:52:25.972Z,712.10
2018-06-25T14:54:53.133Z,689.40
2018-06-25T14:57:20.338Z,672.33
2018-06-25T14:59:47.609Z,641.90
2018-06-25T15:02:14.829Z,632.03
2018-06-25T15:04:42.034Z,669.53
2018-06-25T15:07:09.249Z,626.23
2018-06-25T15:09:36.448Z,648.03
2018-06-25T15:12:03.721Z,635.17
2018-06-25T15:14:30.951Z,599.97
2018-06-25T15:16:58.179Z,616.80
2018-06-25T15:19:25.397Z,575.53
2018-06-25T15:21:52.625Z,577.37
2018-06-25T15:24:19.833Z,582.67
2018-06-25T15:26:47.069Z,601.57
2018-06-25T15:29:14.277Z,601.07
2018-06-25T15:31:41.517Z,577.63
2018-06-25T15:34:08.738Z,574.47
2018-06-25T15:36:35.950Z,575.70
2018-06-25T15:39:05.453Z,578.57
2018-06-25T15:41:32.673Z,576.47
2018-06-25T15:43:59.911Z,579.23
2018-06-25T15:46:27.108Z,580.53
2018-06-25T15:48:54.431Z,578.23
2018-06-25T15:51:21.637Z,571.40
2018-06-25T15:53:48.900Z,590.53
2018-06-25T15:56:16.097Z,597.87
2018-06-25T15:58:43.313Z,592.93
2018-06-25T16:01:10.552Z,614.67
2018-06-25T16:03:37.783Z,622.00
2018-06-25T16:06:05.019Z,580.97
2018-06-25T16:08:32.253Z,613.13
2018-06-25T16:10:59.459Z,573.13
2018-06-25T16:13:26.790Z,569.73
2018-06-25T16:15:53.981Z,564.80
2018-06-25T16:18:21.460Z,569.17
2018-06-25T16:20:48.769Z,568.13
2018-06-25T16:23:15.993Z,566.13
2018-06-25T16:25:43.218Z,571.87
2018-06-25T16:28:10.454Z,572.30
2018-06-25T16:30:37.665Z,565.60
2018-06-25T16:33:04.899Z,562.07
2018-06-25T16:35:32.146Z,562.83
2018-06-25T16:37:59.400Z,558.63
2018-06-25T16:40:26.612Z,556.40
2018-06-25T16:42:53.948Z,557.83
2018-06-25T16:45:21.230Z,552.27
2018-06-25T16:47:48.449Z,563.80
2018-06-25T16:50:15.674Z,561.67
2018-06-25T16:52:42.881Z,559.70
2018-06-25T16:55:10.102Z,562.43
2018-06-25T16:57:37.322Z,562.60
2018-06-25T17:00:04.983Z,555.83
2018-06-25T17:02:32.217Z,560.27
2018-06-25T17:04:59.429Z,549.23
2018-06-25T17:07:26.633Z,551.40
2018-06-25T17:09:53.850Z,551.70
2018-06-25T17:12:21.069Z,545.83
2018-06-25T17:14:48.272Z,551.00
2018-06-25T17:17:15.537Z,552.10
2018-06-25T17:19:42.794Z,551.57
2018-06-25T17:22:10.029Z,553.43
2018-06-25T17:24:38.169Z,550.43
2018-06-25T17:27:05.417Z,554.03
2018-06-25T17:29:32.648Z,554.67
2018-06-25T17:31:59.854Z,551.27
2018-06-25T17:34:27.056Z,552.13
2018-06-25T17:36:54.279Z,553.80
2018-06-25T17:39:21.545Z,546.60
2018-06-25T17:41:48.761Z,550.97
2018-06-25T17:44:15.981Z,541.90
2018-06-25T17:46:43.252Z,539.00
2018-06-25T17:49:10.455Z,533.00
2018-06-25T17:51:37.783Z,530.77
2018-06-25T17:54:05.065Z,528.27
2018-06-25T17:56:32.286Z,532.23
2018-06-25T17:58:59.669Z,528.37
2018-06-25T18:01:27.020Z,524.30
2018-06-25T18:03:54.253Z,533.23
2018-06-25T18:06:21.477Z,527.33
2018-06-25T18:08:48.710Z,529.47
2018-06-25T18:11:15.969Z,526.80
2018-06-25T18:13:43.198Z,526.23
2018-06-25T18:16:10.666Z,518.37
2018-06-25T18:18:37.877Z,521.40
2018-06-25T18:21:05.237Z,519.30
2018-06-25T18:23:32.453Z,518.27
2018-06-25T18:25:59.670Z,516.70
2018-06-25T18:28:26.941Z,516.67
2018-06-25T18:30:54.101Z,516.47
2018-06-25T18:33:21.303Z,523.83
2018-06-25T18:35:48.529Z,514.87
2018-06-25T18:38:15.793Z,523.40
2018-06-25T18:40:43.005Z,516.93
2018-06-25T18:43:10.247Z,514.13
2018-06-25T18:45:37.520Z,520.20
2018-06-25T18:48:04.789Z,510.73
2018-06-25T18:50:32.005Z,518.03
2018-06-25T18:52:59.322Z,512.97
2018-06-25T18:55:26.544Z,509.37
2018-06-25T18:57:53.836Z,515.40
2018-06-25T19:00:21.087Z,510.77
2018-06-25T19:02:48.321Z,514.23
2018-06-25T19:05:15.565Z,510.37
2018-06-25T19:07:42.794Z,509.00
2018-06-25T19:10:21.535Z,511.60
2018-06-25T19:12:48.753Z,509.93
2018-06-25T19:15:15.961Z,503.50
2018-06-25T19:17:43.189Z,517.60
2018-06-25T19:20:10.417Z,506.60
2018-06-25T19:22:37.725Z,501.50
2018-06-25T19:25:04.987Z,500.63
2018-06-25T19:27:32.303Z,502.13
2018-06-25T19:29:59.527Z,499.80
2018-06-25T19:32:26.751Z,506.40
2018-06-25T19:34:53.955Z,502.90
2018-06-25T19:37:21.346Z,505.63
2018-06-25T19:39:48.573Z,510.50
2018-06-25T19:42:15.825Z,505.13
2018-06-25T19:44:43.048Z,503.63
2018-06-25T19:47:10.339Z,505.47
2018-06-25T19:49:37.549Z,500.13
2018-06-25T19:52:04.790Z,501.27
2018-06-25T19:54:32.005Z,501.53
2018-06-25T19:56:59.236Z,499.87
2018-06-25T19:59:26.829Z,496.40
2018-06-25T20:01:54.099Z,501.63
2018-06-25T20:04:21.320Z,496.37
2018-06-25T20:06:48.562Z,496.17
2018-06-25T20:09:15.821Z,497.00
2018-06-25T20:11:43.048Z,500.97
2018-06-25T20:14:10.414Z,492.33
2018-06-25T20:16:37.732Z,497.03
2018-06-25T20:19:04.973Z,495.33
2018-06-25T20:21:32.342Z,492.00
2018-06-25T20:23:59.540Z,493.10
2018-06-25T20:26:26.786Z,494.67
2018-06-25T20:28:54.105Z,490.80
2018-06-25T20:31:21.345Z,489.87
2018-06-25T20:33:48.577Z,490.77
2018-06-25T20:36:15.850Z,495.17
2018-06-25T20:38:43.044Z,490.67
2018-06-25T20:41:10.506Z,492.07
2018-06-25T20:43:37.897Z,489.37
2018-06-25T20:46:05.257Z,491.73
2018-06-25T20:48:32.621Z,487.97
2018-06-25T20:50:59.869Z,492.07
2018-06-25T20:53:27.082Z,486.80
2018-06-25T20:55:54.354Z,487.33
2018-06-25T20:58:21.581Z,483.80
2018-06-25T21:00:48.953Z,487.70
2018-06-25T21:03:16.160Z,485.73
2018-06-25T21:05:43.398Z,487.80
2018-06-25T21:08:10.613Z,490.00
2018-06-25T21:10:42.561Z,488.60
2018-06-25T21:13:09.822Z,484.17
2018-06-25T21:15:37.036Z,483.60
2018-06-25T21:18:04.533Z,482.77
2018-06-25T21:20:31.803Z,486.50
2018-06-25T21:22:59.025Z,488.30
2018-06-25T21:25:26.342Z,486.00
2018-06-25T21:27:53.501Z,482.27
2018-06-25T21:30:20.750Z,483.27
2018-06-25T21:32:47.968Z,480.23
2018-06-25T21:35:15.174Z,480.80
2018-06-25T21:37:42.417Z,484.20
2018-06-25T21:40:09.713Z,479.43
2018-06-25T21:42:36.937Z,484.17
2018-06-25T21:45:04.193Z,477.73
2018-06-25T21:47:31.491Z,480.33
2018-06-25T21:49:58.671Z,479.67
2018-06-25T21:52:25.886Z,482.60
2018-06-25T21:54:53.173Z,479.30
2018-06-25T21:57:20.524Z,478.27
2018-06-25T21:59:47.757Z,483.17
2018-06-25T22:02:14.982Z,482.40
2018-06-25T22:04:42.202Z,476.70
2018-06-25T22:07:09.413Z,477.23
2018-06-25T22:09:36.621Z,481.77
2018-06-25T22:12:04.027Z,474.90
2018-06-25T22:14:31.233Z,476.50
2018-06-25T22:16:58.476Z,481.60
2018-06-25T22:19:25.721Z,475.43
2018-06-25T22:21:52.961Z,477.17
2018-06-25T22:24:20.181Z,478.27
2018-06-25T22:26:47.428Z,478.60
2018-06-25T22:29:14.637Z,475.17
2018-06-25T22:31:41.893Z,481.00
2018-06-25T22:34:09.109Z,478.77
2018-06-25T22:36:36.332Z,478.20
2018-06-25T22:39:06.922Z,475.07
2018-06-25T22:41:34.141Z,481.23
2018-06-25T22:44:07.886Z,478.43
2018-06-25T22:46:35.978Z,474.67
2018-06-25T22:49:03.217Z,474.33
2018-06-25T22:51:30.457Z,472.20
2018-06-25T22:53:57.692Z,474.13
2018-06-25T22:56:24.913Z,478.00
2018-06-25T22:58:52.292Z,473.70
2018-06-25T23:01:19.569Z,476.70
2018-06-25T23:03:46.884Z,475.57
2018-06-25T23:06:14.046Z,474.87
2018-06-25T23:08:41.269Z,474.60
2018-06-25T23:11:08.488Z,473.07
2018-06-25T23:13:35.705Z,476.97
2018-06-25T23:16:02.937Z,475.40
2018-06-25T23:18:30.141Z,475.73
2018-06-25T23:20:57.341Z,478.30
2018-06-25T23:23:24.542Z,477.00
2018-06-25T23:25:51.783Z,475.03
2018-06-25T23:28:19.044Z,475.60
2018-06-25T23:30:46.237Z,477.37
2018-06-25T23:33:13.453Z,474.20
2018-06-25T23:35:40.659Z,474.07
2018-06-25T23:38:07.867Z,474.30
2018-06-25T23:40:35.085Z,481.60
2018-06-25T23:43:02.301Z,473.97
2018-06-25T23:45:29.496Z,474.40
2018-06-25T23:47:56.701Z,473.67
2018-06-25T23:50:23.906Z,476.70
2018-06-25T23:52:51.109Z,472.27
2018-06-25T23:55:18.313Z,476.43
2018-06-25T23:57:45.547Z,474.97
